KDFW/DFW METAR and TAF weather

Enter ICAO airport designator
Station Type Date Time Source
KDFW METAR 2020/09/26 20:53 UTC NOAA

KDFW 262053Z 17015G23KT 10SM FEW040 31/17 A2981 RMK AO2 SLP086 T03060167 56029


Station Type Date Time Source
KDFW Decoded METAR 2020/09/26 20:53 UTC NOAA

DALLAS/FT. WORTH INTERNATIONAL AIRPORT , TX, United States (KDFW) 32-54N 097-02W 174M
Sep 26, 2020 - 04:53 PM EDT / 2020.09.26 2053 UTC
Wind: from the S (170 degrees) at 17 MPH (15 KT) gusting to 26 MPH (23 KT):0
Visibility: 10 mile(s):0
Sky conditions: mostly clear
Temperature: 87.1 F (30.6 C)
Dew Point: 62.1 F (16.7 C)
Relative Humidity: 43%
Pressure (altimeter): 29.81 in. Hg (1009 hPa)
Pressure tendency: 0.09 inches (2.9 hPa) lower than three hours ago
ob: KDFW 262053Z 17015G23KT 10SM FEW040 31/17 A2981 RMK AO2 SLP086 T03060167 56029
cycle: 21

Station Type Date Time Source
KDFW TAF 2020/09/26 21:06 UTC NOAA

TAF
AMD KDFW 262104Z 2621/2724 17015KT P6SM FEW040
FM271300 18012KT P6SM BKN018
FM271500 18015KT P6SM BKN022
FM271700 18016KT P6SM SCT035

Example: see airport list